DLH315 LSZH-EDDL
Flight info
| Callsign | DLH315 |
|---|---|
| Flight time | 1h 4m |
| Altitude | 32000 |
| Route | DEGES Z1 ETAGO DCT HAREM/N0494F330 DCT LOHRE/N0496F320 Z850 ADEMI T854 DOMUX DOMUX1A |
| Aircraft | A359/H-SDE2E3GHIJ3J4J5LM1ORWXY/LB1D1 |
Departure
| Time | 2026-04-30 07:11 |
|---|---|
| Airport | Zürich Airport (LSZH) |
Arrival
| Time | 2026-04-30 08:15 |
|---|---|
| Airport | Düsseldorf Airport (EDDL) |
| Time | Latitude | Longitude | Altitude | Speed | Heading |
|---|---|---|---|---|---|
| 2026-04-30 06:53 | 47.46023 | 8.55843 | 1403 ft | 0 kts | 3° |
| 2026-04-30 07:04 | 47.46007 | 8.55840 | 1405 ft | 2 kts | 9° |
| 2026-04-30 07:05 | 47.45975 | 8.55826 | 1410 ft | 2 kts | 28° |
| 2026-04-30 07:05 | 47.45962 | 8.55813 | 1409 ft | 2 kts | 46° |
| 2026-04-30 07:05 | 47.45952 | 8.55793 | 1414 ft | 2 kts | 68° |
| 2026-04-30 07:06 | 47.45948 | 8.55770 | 1412 ft | 2 kts | 86° |
| 2026-04-30 07:06 | 47.45948 | 8.55751 | 1408 ft | 1 kts | 95° |
| 2026-04-30 07:06 | 47.45948 | 8.55748 | 1407 ft | 0 kts | 96° |
| 2026-04-30 07:08 | 47.45947 | 8.55754 | 1405 ft | 3 kts | 96° |
| 2026-04-30 07:08 | 47.45942 | 8.55827 | 1405 ft | 12 kts | 96° |
| 2026-04-30 07:08 | 47.45929 | 8.55988 | 1413 ft | 19 kts | 96° |
| 2026-04-30 07:08 | 47.45917 | 8.56206 | 1412 ft | 22 kts | 98° |
| 2026-04-30 07:09 | 47.45875 | 8.56431 | 1416 ft | 24 kts | 122° |
| 2026-04-30 07:09 | 47.45795 | 8.56650 | 1410 ft | 25 kts | 98° |
| 2026-04-30 07:09 | 47.45775 | 8.56918 | 1408 ft | 26 kts | 97° |
| 2026-04-30 07:09 | 47.45763 | 8.56979 | 1406 ft | 0 kts | 114° |
| 2026-04-30 07:10 | 47.45751 | 8.57001 | 1410 ft | 10 kts | 131° |
| 2026-04-30 07:10 | 47.45670 | 8.57020 | 1407 ft | 0 kts | 210° |
| 2026-04-30 07:10 | 47.45651 | 8.56971 | 1413 ft | 9 kts | 255° |
| 2026-04-30 07:10 | 47.45660 | 8.56900 | 1406 ft | 9 kts | 281° |
| 2026-04-30 07:11 | 47.45695 | 8.56552 | 1403 ft | 77 kts | 276° |
| 2026-04-30 07:11 | 47.45790 | 8.55308 | 1415 ft | 164 kts | 274° |
| 2026-04-30 07:11 | 47.45787 | 8.53639 | 2384 ft | 162 kts | 274° |
| 2026-04-30 07:11 | 47.45905 | 8.51857 | 3096 ft | 188 kts | 281° |
| 2026-04-30 07:12 | 47.46076 | 8.49758 | 3425 ft | 220 kts | 271° |
| 2026-04-30 07:12 | 47.45616 | 8.47573 | 4023 ft | 230 kts | 233° |
| 2026-04-30 07:12 | 47.44636 | 8.45716 | 4935 ft | 230 kts | 227° |
| 2026-04-30 07:12 | 47.43776 | 8.43699 | 5781 ft | 236 kts | 246° |
| 2026-04-30 07:13 | 47.43259 | 8.41378 | 6681 ft | 239 kts | 253° |
| 2026-04-30 07:13 | 47.42793 | 8.39004 | 7532 ft | 242 kts | 249° |
| 2026-04-30 07:13 | 47.41886 | 8.36966 | 8340 ft | 243 kts | 217° |
| 2026-04-30 07:13 | 47.40338 | 8.36001 | 9239 ft | 240 kts | 181° |
| 2026-04-30 07:14 | 47.38726 | 8.36469 | 10103 ft | 238 kts | 148° |
| 2026-04-30 07:14 | 47.37562 | 8.38115 | 10831 ft | 237 kts | 117° |
| 2026-04-30 07:14 | 47.37172 | 8.40439 | 11642 ft | 237 kts | 85° |
| 2026-04-30 07:14 | 47.37678 | 8.42720 | 12468 ft | 237 kts | 54° |
| 2026-04-30 07:15 | 47.38927 | 8.44284 | 13318 ft | 239 kts | 27° |
| 2026-04-30 07:15 | 47.40455 | 8.45310 | 14173 ft | 242 kts | 26° |
| 2026-04-30 07:15 | 47.41813 | 8.46790 | 14915 ft | 245 kts | 47° |
| 2026-04-30 07:15 | 47.42905 | 8.48785 | 15496 ft | 260 kts | 52° |
| 2026-04-30 07:16 | 47.44019 | 8.51039 | 15827 ft | 282 kts | 53° |
| 2026-04-30 07:16 | 47.45146 | 8.53533 | 16158 ft | 304 kts | 60° |
| 2026-04-30 07:16 | 47.45827 | 8.56603 | 16476 ft | 327 kts | 80° |
| 2026-04-30 07:16 | 47.46000 | 8.60057 | 16835 ft | 346 kts | 85° |
| 2026-04-30 07:17 | 47.46101 | 8.63662 | 17189 ft | 363 kts | 85° |
| 2026-04-30 07:17 | 47.46213 | 8.67428 | 17773 ft | 371 kts | 84° |
| 2026-04-30 07:17 | 47.46478 | 8.75148 | 19231 ft | 379 kts | 84° |
| 2026-04-30 07:18 | 47.46616 | 8.79066 | 19977 ft | 382 kts | 84° |
| 2026-04-30 07:18 | 47.46579 | 8.83006 | 20737 ft | 388 kts | 93° |
| 2026-04-30 07:18 | 47.46088 | 8.86948 | 21523 ft | 393 kts | 99° |
| 2026-04-30 07:18 | 47.45488 | 8.90918 | 22283 ft | 396 kts | 98° |
| 2026-04-30 07:19 | 47.44910 | 8.94906 | 23039 ft | 400 kts | 98° |
| 2026-04-30 07:19 | 47.44331 | 8.98938 | 23800 ft | 403 kts | 98° |
| 2026-04-30 07:19 | 47.43747 | 9.03010 | 24429 ft | 406 kts | 98° |
| 2026-04-30 07:19 | 47.43158 | 9.07095 | 25073 ft | 408 kts | 98° |
| 2026-04-30 07:20 | 47.42563 | 9.11226 | 25708 ft | 411 kts | 98° |
| 2026-04-30 07:20 | 47.42172 | 9.15327 | 26336 ft | 410 kts | 90° |
| 2026-04-30 07:20 | 47.42280 | 9.19575 | 26984 ft | 408 kts | 79° |
| 2026-04-30 07:20 | 47.42915 | 9.23612 | 27620 ft | 407 kts | 70° |
| 2026-04-30 07:21 | 47.44040 | 9.27448 | 28264 ft | 408 kts | 62° |
| 2026-04-30 07:21 | 47.45406 | 9.31129 | 28867 ft | 410 kts | 59° |
| 2026-04-30 07:21 | 47.47038 | 9.34601 | 29473 ft | 413 kts | 51° |
| 2026-04-30 07:21 | 47.49003 | 9.37711 | 30067 ft | 416 kts | 44° |
| 2026-04-30 07:22 | 47.53855 | 9.42554 | 31005 ft | 428 kts | 27° |
| 2026-04-30 07:22 | 47.56648 | 9.44129 | 31375 ft | 435 kts | 19° |
| 2026-04-30 07:22 | 47.59637 | 9.45084 | 31760 ft | 442 kts | 11° |
| 2026-04-30 07:23 | 47.62713 | 9.45449 | 32128 ft | 447 kts | 6° |
| 2026-04-30 07:23 | 47.65841 | 9.45648 | 32261 ft | 450 kts | 6° |
| 2026-04-30 07:23 | 47.72041 | 9.45914 | 32266 ft | 448 kts | 5° |
| 2026-04-30 07:24 | 47.78335 | 9.46195 | 32267 ft | 448 kts | 6° |
| 2026-04-30 07:24 | 47.84532 | 9.46415 | 32270 ft | 450 kts | 4° |
| 2026-04-30 07:25 | 47.90804 | 9.46342 | 32275 ft | 451 kts | 3° |
| 2026-04-30 07:25 | 47.97056 | 9.46252 | 32287 ft | 451 kts | 3° |
| 2026-04-30 07:26 | 48.03314 | 9.46217 | 32300 ft | 451 kts | 4° |
| 2026-04-30 07:26 | 48.09641 | 9.46205 | 32300 ft | 452 kts | 4° |
| 2026-04-30 07:27 | 48.14888 | 9.46196 | 32305 ft | 452 kts | 4° |
| 2026-04-30 07:27 | 48.22184 | 9.46188 | 32309 ft | 452 kts | 4° |
| 2026-04-30 07:28 | 48.28516 | 9.46196 | 32310 ft | 452 kts | 4° |
| 2026-04-30 07:28 | 48.33739 | 9.46204 | 32309 ft | 452 kts | 4° |
| 2026-04-30 07:29 | 48.41066 | 9.46213 | 32303 ft | 452 kts | 4° |
| 2026-04-30 07:29 | 48.46312 | 9.46217 | 32306 ft | 453 kts | 4° |
| 2026-04-30 07:30 | 48.55772 | 9.46217 | 32315 ft | 453 kts | 4° |
| 2026-04-30 07:31 | 48.62083 | 9.46146 | 32313 ft | 453 kts | 4° |
| 2026-04-30 07:31 | 48.68397 | 9.46057 | 32316 ft | 453 kts | 4° |
| 2026-04-30 07:32 | 48.74692 | 9.45973 | 32317 ft | 453 kts | 3° |
| 2026-04-30 07:32 | 48.81003 | 9.45683 | 32317 ft | 454 kts | 2° |
| 2026-04-30 07:33 | 48.87284 | 9.45300 | 32318 ft | 453 kts | 2° |
| 2026-04-30 07:33 | 48.93588 | 9.44949 | 32320 ft | 453 kts | 2° |
| 2026-04-30 07:34 | 48.99887 | 9.44625 | 32354 ft | 452 kts | 2° |
| 2026-04-30 07:34 | 49.06181 | 9.44309 | 32355 ft | 452 kts | 2° |
| 2026-04-30 07:35 | 49.12477 | 9.43989 | 32369 ft | 452 kts | 2° |
| 2026-04-30 07:35 | 49.18766 | 9.43669 | 32370 ft | 452 kts | 2° |
| 2026-04-30 07:36 | 49.25036 | 9.43346 | 32367 ft | 452 kts | 2° |
| 2026-04-30 07:36 | 49.31291 | 9.43025 | 32367 ft | 451 kts | 2° |
| 2026-04-30 07:37 | 49.37587 | 9.42700 | 32362 ft | 451 kts | 2° |
| 2026-04-30 07:37 | 49.43872 | 9.42375 | 32364 ft | 451 kts | 2° |
| 2026-04-30 07:38 | 49.50152 | 9.42050 | 32368 ft | 450 kts | 2° |
| 2026-04-30 07:38 | 49.56360 | 9.41729 | 32372 ft | 450 kts | 2° |
| 2026-04-30 07:39 | 49.62613 | 9.41655 | 32382 ft | 446 kts | 9° |
| 2026-04-30 07:39 | 49.68781 | 9.42517 | 32386 ft | 445 kts | 10° |
| 2026-04-30 07:40 | 49.74948 | 9.43505 | 32389 ft | 444 kts | 10° |
| 2026-04-30 07:40 | 49.81097 | 9.44508 | 32391 ft | 444 kts | 10° |
| 2026-04-30 07:41 | 49.87208 | 9.45496 | 32398 ft | 444 kts | 10° |
| 2026-04-30 07:41 | 49.93342 | 9.46483 | 32402 ft | 444 kts | 10° |
| 2026-04-30 07:42 | 49.99499 | 9.47394 | 32401 ft | 446 kts | 6° |
| 2026-04-30 07:42 | 50.05743 | 9.46405 | 32407 ft | 457 kts | 350° |
| 2026-04-30 07:43 | 50.11608 | 9.42322 | 32411 ft | 471 kts | 332° |
| 2026-04-30 07:43 | 50.16846 | 9.36053 | 32425 ft | 476 kts | 326° |
| 2026-04-30 07:44 | 50.21915 | 9.29524 | 32404 ft | 476 kts | 326° |
| 2026-04-30 07:44 | 50.27033 | 9.22922 | 32425 ft | 476 kts | 326° |
| 2026-04-30 07:45 | 50.32159 | 9.16361 | 32423 ft | 477 kts | 326° |
| 2026-04-30 07:45 | 50.37299 | 9.09803 | 32426 ft | 477 kts | 326° |
| 2026-04-30 07:46 | 50.42441 | 9.03217 | 32433 ft | 477 kts | 326° |
| 2026-04-30 07:46 | 50.47580 | 8.96607 | 32436 ft | 477 kts | 326° |
| 2026-04-30 07:47 | 50.52717 | 8.89984 | 32442 ft | 477 kts | 326° |
| 2026-04-30 07:47 | 50.57881 | 8.83593 | 32440 ft | 476 kts | 328° |
| 2026-04-30 07:48 | 50.63176 | 8.77344 | 32444 ft | 476 kts | 328° |
| 2026-04-30 07:48 | 50.68481 | 8.71036 | 32446 ft | 476 kts | 328° |
| 2026-04-30 07:49 | 50.73729 | 8.64718 | 32448 ft | 476 kts | 327° |
| 2026-04-30 07:49 | 50.79000 | 8.58329 | 32446 ft | 477 kts | 327° |
| 2026-04-30 07:50 | 50.84275 | 8.51913 | 32441 ft | 477 kts | 327° |
| 2026-04-30 07:50 | 50.89544 | 8.45493 | 32438 ft | 477 kts | 327° |
| 2026-04-30 07:51 | 50.94773 | 8.39095 | 32080 ft | 462 kts | 327° |
| 2026-04-30 07:51 | 50.97320 | 8.35970 | 31264 ft | 468 kts | 327° |
| 2026-04-30 07:51 | 50.99911 | 8.32804 | 30274 ft | 473 kts | 327° |
| 2026-04-30 07:51 | 51.02652 | 8.29899 | 29285 ft | 472 kts | 334° |
| 2026-04-30 07:52 | 51.05441 | 8.27310 | 28613 ft | 467 kts | 336° |
| 2026-04-30 07:52 | 51.08268 | 8.24843 | 27954 ft | 461 kts | 337° |
| 2026-04-30 07:52 | 51.11114 | 8.22462 | 27285 ft | 457 kts | 338° |
| 2026-04-30 07:52 | 51.13913 | 8.20122 | 26626 ft | 453 kts | 337° |
| 2026-04-30 07:53 | 51.16671 | 8.17770 | 25977 ft | 450 kts | 336° |
| 2026-04-30 07:53 | 51.19418 | 8.15373 | 25322 ft | 447 kts | 336° |
| 2026-04-30 07:53 | 51.22113 | 8.12983 | 24678 ft | 444 kts | 335° |
| 2026-04-30 07:53 | 51.24808 | 8.10569 | 24024 ft | 441 kts | 335° |
| 2026-04-30 07:54 | 51.27462 | 8.08178 | 23307 ft | 437 kts | 335° |
| 2026-04-30 07:54 | 51.30093 | 8.05800 | 22658 ft | 432 kts | 335° |
| 2026-04-30 07:54 | 51.32665 | 8.03476 | 22022 ft | 427 kts | 335° |
| 2026-04-30 07:54 | 51.35233 | 8.01159 | 21371 ft | 423 kts | 335° |
| 2026-04-30 07:55 | 51.37791 | 7.98850 | 20748 ft | 419 kts | 335° |
| 2026-04-30 07:55 | 51.40330 | 7.96559 | 20093 ft | 416 kts | 335° |
| 2026-04-30 07:55 | 51.42825 | 7.94225 | 19442 ft | 415 kts | 331° |
| 2026-04-30 07:55 | 51.44936 | 7.91060 | 18820 ft | 420 kts | 313° |
| 2026-04-30 07:56 | 51.46427 | 7.87006 | 18100 ft | 424 kts | 296° |
| 2026-04-30 07:56 | 51.47151 | 7.82442 | 17432 ft | 426 kts | 279° |
| 2026-04-30 07:56 | 51.47062 | 7.77718 | 16793 ft | 425 kts | 262° |
| 2026-04-30 07:56 | 51.46371 | 7.73140 | 16492 ft | 424 kts | 255° |
| 2026-04-30 07:57 | 51.45409 | 7.68587 | 16281 ft | 436 kts | 250° |
| 2026-04-30 07:57 | 51.44360 | 7.64037 | 15939 ft | 436 kts | 251° |
| 2026-04-30 07:57 | 51.43389 | 7.59499 | 15311 ft | 431 kts | 253° |
| 2026-04-30 07:57 | 51.42507 | 7.54873 | 14635 ft | 427 kts | 257° |
| 2026-04-30 07:58 | 51.42168 | 7.50244 | 14147 ft | 420 kts | 271° |
| 2026-04-30 07:58 | 51.42177 | 7.45563 | 13858 ft | 422 kts | 273° |
| 2026-04-30 07:58 | 51.42210 | 7.40787 | 13524 ft | 422 kts | 272° |
| 2026-04-30 07:58 | 51.42235 | 7.36139 | 13205 ft | 420 kts | 272° |
| 2026-04-30 07:59 | 51.42258 | 7.31469 | 12881 ft | 418 kts | 272° |
| 2026-04-30 07:59 | 51.42278 | 7.26840 | 12556 ft | 416 kts | 272° |
| 2026-04-30 07:59 | 51.42285 | 7.22222 | 12284 ft | 411 kts | 271° |
| 2026-04-30 08:00 | 51.40688 | 7.14003 | 11834 ft | 376 kts | 233° |
| 2026-04-30 08:00 | 51.38940 | 7.10950 | 11613 ft | 361 kts | 222° |
| 2026-04-30 08:00 | 51.37159 | 7.08205 | 11396 ft | 348 kts | 223° |
| 2026-04-30 08:00 | 51.35462 | 7.05528 | 11184 ft | 337 kts | 224° |
| 2026-04-30 08:01 | 51.33832 | 7.02912 | 10942 ft | 328 kts | 224° |
| 2026-04-30 08:01 | 51.32268 | 7.00384 | 10613 ft | 323 kts | 224° |
| 2026-04-30 08:01 | 51.30700 | 6.97833 | 10262 ft | 320 kts | 224° |
| 2026-04-30 08:01 | 51.29152 | 6.95302 | 9856 ft | 316 kts | 224° |
| 2026-04-30 08:02 | 51.26157 | 6.90417 | 9379 ft | 301 kts | 224° |
| 2026-04-30 08:02 | 51.24701 | 6.88036 | 9227 ft | 290 kts | 223° |
| 2026-04-30 08:03 | 51.21962 | 6.83579 | 8829 ft | 274 kts | 223° |
| 2026-04-30 08:03 | 51.19484 | 6.79030 | 8276 ft | 271 kts | 230° |
| 2026-04-30 08:03 | 51.18348 | 6.76652 | 8040 ft | 267 kts | 231° |
| 2026-04-30 08:04 | 51.17235 | 6.74315 | 7832 ft | 266 kts | 231° |
| 2026-04-30 08:04 | 51.16116 | 6.71962 | 7632 ft | 265 kts | 231° |
| 2026-04-30 08:04 | 51.14999 | 6.69620 | 7421 ft | 264 kts | 230° |
| 2026-04-30 08:04 | 51.13891 | 6.67312 | 7200 ft | 263 kts | 230° |
| 2026-04-30 08:05 | 51.12774 | 6.64995 | 6990 ft | 262 kts | 230° |
| 2026-04-30 08:05 | 51.11682 | 6.62731 | 6790 ft | 261 kts | 230° |
| 2026-04-30 08:05 | 51.10540 | 6.60356 | 6661 ft | 283 kts | 230° |
| 2026-04-30 08:05 | 51.09329 | 6.57821 | 6593 ft | 292 kts | 231° |
| 2026-04-30 08:06 | 51.08088 | 6.55212 | 6354 ft | 290 kts | 231° |
| 2026-04-30 08:06 | 51.06887 | 6.52694 | 5942 ft | 290 kts | 230° |
| 2026-04-30 08:06 | 51.05662 | 6.50152 | 5713 ft | 286 kts | 228° |
| 2026-04-30 08:06 | 51.04464 | 6.47696 | 5555 ft | 277 kts | 232° |
| 2026-04-30 08:07 | 51.03818 | 6.44880 | 5404 ft | 273 kts | 265° |
| 2026-04-30 08:07 | 51.04199 | 6.42014 | 5257 ft | 262 kts | 302° |
| 2026-04-30 08:07 | 51.05439 | 6.40084 | 5089 ft | 241 kts | 340° |
| 2026-04-30 08:07 | 51.06994 | 6.39666 | 4989 ft | 218 kts | 13° |
| 2026-04-30 08:08 | 51.08348 | 6.40326 | 4931 ft | 197 kts | 36° |
| 2026-04-30 08:08 | 51.09414 | 6.41578 | 4797 ft | 183 kts | 48° |
| 2026-04-30 08:08 | 51.10333 | 6.42921 | 4526 ft | 181 kts | 49° |
| 2026-04-30 08:08 | 51.11263 | 6.44280 | 4288 ft | 182 kts | 49° |
| 2026-04-30 08:09 | 51.12211 | 6.45639 | 3979 ft | 184 kts | 48° |
| 2026-04-30 08:09 | 51.13170 | 6.46988 | 3753 ft | 183 kts | 49° |
| 2026-04-30 08:09 | 51.14130 | 6.48331 | 3547 ft | 180 kts | 49° |
| 2026-04-30 08:09 | 51.15059 | 6.49635 | 3314 ft | 180 kts | 48° |
| 2026-04-30 08:10 | 51.16009 | 6.50940 | 3090 ft | 182 kts | 48° |
| 2026-04-30 08:10 | 51.16923 | 6.52290 | 2975 ft | 175 kts | 57° |
| 2026-04-30 08:10 | 51.17682 | 6.53799 | 2977 ft | 174 kts | 60° |
| 2026-04-30 08:10 | 51.18430 | 6.55308 | 2987 ft | 173 kts | 59° |
| 2026-04-30 08:11 | 51.19189 | 6.56812 | 2980 ft | 174 kts | 60° |
| 2026-04-30 08:11 | 51.19924 | 6.58338 | 2878 ft | 173 kts | 61° |
| 2026-04-30 08:11 | 51.20640 | 6.59841 | 2655 ft | 173 kts | 61° |
| 2026-04-30 08:11 | 51.21370 | 6.61366 | 2407 ft | 172 kts | 62° |
| 2026-04-30 08:12 | 51.22101 | 6.62895 | 2159 ft | 171 kts | 61° |
| 2026-04-30 08:12 | 51.22811 | 6.64386 | 1903 ft | 171 kts | 60° |
| 2026-04-30 08:12 | 51.23525 | 6.65885 | 1720 ft | 166 kts | 59° |
| 2026-04-30 08:12 | 51.24208 | 6.67305 | 1479 ft | 155 kts | 59° |
| 2026-04-30 08:13 | 51.24832 | 6.68622 | 1270 ft | 144 kts | 58° |
| 2026-04-30 08:13 | 51.25416 | 6.69841 | 1060 ft | 133 kts | 59° |
| 2026-04-30 08:13 | 51.25959 | 6.70990 | 866 ft | 126 kts | 58° |
| 2026-04-30 08:13 | 51.26479 | 6.72078 | 697 ft | 121 kts | 59° |
| 2026-04-30 08:14 | 51.26991 | 6.73151 | 541 ft | 122 kts | 58° |
| 2026-04-30 08:14 | 51.27338 | 6.73865 | 426 ft | 123 kts | 57° |
| 2026-04-30 08:14 | 51.27858 | 6.74972 | 270 ft | 125 kts | 56° |
| 2026-04-30 08:14 | 51.28373 | 6.76051 | 151 ft | 117 kts | 60° |
| 2026-04-30 08:15 | 51.28803 | 6.76967 | 147 ft | 78 kts | 53° |
| 2026-04-30 08:15 | 51.29054 | 6.77491 | 148 ft | 53 kts | 52° |
| 2026-04-30 08:15 | 51.29255 | 6.77912 | 154 ft | 27 kts | 53° |
| 2026-04-30 08:15 | 51.29276 | 6.77961 | 155 ft | 6 kts | 56° |
| 2026-04-30 08:16 | 51.29291 | 6.78100 | 156 ft | 20 kts | 108° |
| 2026-04-30 08:16 | 51.29179 | 6.78190 | 153 ft | 19 kts | 201° |
| 2026-04-30 08:16 | 51.29085 | 6.78032 | 151 ft | 23 kts | 233° |
| 2026-04-30 08:16 | 51.28845 | 6.77533 | 145 ft | 102 kts | 232° |
| 2026-04-30 08:17 | 51.28366 | 6.76519 | 139 ft | 81 kts | 233° |
| 2026-04-30 08:17 | 51.28240 | 6.76268 | 140 ft | 2 kts | 213° |
| 2026-04-30 08:17 | 51.28186 | 6.76270 | 140 ft | 10 kts | 155° |
| 2026-04-30 08:17 | 51.28112 | 6.76291 | 139 ft | 12 kts | 183° |
| 2026-04-30 08:18 | 51.28078 | 6.76290 | 139 ft | 0 kts | 184° |